createdAt,value
2018-01-18T00:00:52.582Z,97076.52
2018-01-18T00:03:20.920Z,97064.35
2018-01-18T00:05:49.265Z,97058.44
2018-01-18T00:08:17.577Z,97052.95
2018-01-18T00:10:45.912Z,97051.72
2018-01-18T00:13:14.274Z,97042.03
2018-01-18T00:15:42.594Z,97044.09
2018-01-18T00:18:10.918Z,97035.67
2018-01-18T00:20:39.979Z,97037.63
2018-01-18T00:23:09.209Z,97034.30
2018-01-18T00:25:37.540Z,97033.09
2018-01-18T00:28:05.882Z,97032.27
2018-01-18T00:30:34.234Z,97031.34
2018-01-18T00:33:03.322Z,96999.63
2018-01-18T00:35:31.647Z,97034.27
2018-01-18T00:37:59.974Z,97031.38
2018-01-18T00:40:28.295Z,97024.27
2018-01-18T00:42:56.643Z,97027.23
2018-01-18T00:45:24.997Z,97016.31
2018-01-18T00:47:53.327Z,97012.11
2018-01-18T00:50:21.655Z,97014.56
2018-01-18T00:52:50.566Z,97017.45
2018-01-18T00:55:19.662Z,97012.86
2018-01-18T00:57:48.784Z,97010.34
2018-01-18T01:00:17.124Z,97006.95
2018-01-18T01:02:45.464Z,96996.84
2018-01-18T01:05:13.790Z,97001.08
2018-01-18T01:07:42.114Z,96995.59
2018-01-18T01:10:10.443Z,96992.25
2018-01-18T01:12:40.513Z,96986.77
2018-01-18T01:15:08.833Z,96986.78
2018-01-18T01:17:37.147Z,96983.36
2018-01-18T01:20:06.389Z,96987.54
2018-01-18T01:22:34.740Z,96977.48
2018-01-18T01:25:03.065Z,96980.40
2018-01-18T01:27:31.401Z,96987.91
2018-01-18T01:29:59.734Z,96988.41
2018-01-18T01:32:28.072Z,96979.41
2018-01-18T01:34:56.390Z,96980.33
2018-01-18T01:37:25.501Z,96971.88
2018-01-18T01:39:53.833Z,96961.77
2018-01-18T01:42:22.169Z,96960.58
2018-01-18T01:44:50.516Z,96954.24
2018-01-18T01:47:19.616Z,96954.64
2018-01-18T01:49:47.947Z,96945.75
2018-01-18T01:52:16.262Z,96947.41
2018-01-18T01:54:45.342Z,96941.55
2018-01-18T01:57:13.666Z,96936.44
2018-01-18T01:59:41.989Z,96926.72
2018-01-18T02:02:10.321Z,96924.55
2018-01-18T02:04:38.665Z,96913.97
2018-01-18T02:07:07.778Z,96908.48
2018-01-18T02:09:36.114Z,96907.22
2018-01-18T02:12:04.450Z,96901.23
2018-01-18T02:14:32.793Z,96897.86
2018-01-18T02:17:01.143Z,96892.86
2018-01-18T02:19:29.496Z,96884.37
2018-01-18T02:21:57.827Z,96888.17
2018-01-18T02:24:26.157Z,96886.09
2018-01-18T02:26:54.554Z,96885.22
2018-01-18T02:29:22.875Z,96878.82
2018-01-18T02:31:51.289Z,96869.92
2018-01-18T02:34:19.626Z,96860.22
2018-01-18T02:36:48.732Z,96861.45
2018-01-18T02:39:17.073Z,96854.28
2018-01-18T02:41:45.422Z,96841.17
2018-01-18T02:44:13.746Z,96834.48
2018-01-18T02:46:43.645Z,96835.34
2018-01-18T02:49:11.983Z,96831.13
2018-01-18T02:51:40.293Z,96820.16
2018-01-18T02:54:08.640Z,96817.19
2018-01-18T02:56:36.970Z,96815.05
2018-01-18T02:59:05.300Z,96809.20
2018-01-18T03:01:33.618Z,96808.34
2018-01-18T03:04:03.762Z,96793.16
2018-01-18T03:06:32.092Z,96789.77
2018-01-18T03:09:00.458Z,96784.32
2018-01-18T03:11:28.791Z,96760.27
2018-01-18T03:13:57.122Z,96761.10
2018-01-18T03:16:25.438Z,96752.69
2018-01-18T03:18:54.567Z,96744.26
2018-01-18T03:21:23.873Z,96752.27
2018-01-18T03:23:52.194Z,96733.70
2018-01-18T03:26:21.279Z,96724.02
2018-01-18T03:28:49.608Z,96724.82
2018-01-18T03:31:17.943Z,96722.32
2018-01-18T03:33:46.283Z,96713.85
2018-01-18T03:36:14.617Z,96696.95
2018-01-18T03:38:43.735Z,96687.27
2018-01-18T03:41:12.121Z,96664.09
2018-01-18T03:43:40.460Z,96661.53
2018-01-18T03:46:08.796Z,96652.69
2018-01-18T03:48:37.119Z,96643.42
2018-01-18T03:51:06.155Z,96631.17
2018-01-18T03:53:34.488Z,96610.91
2018-01-18T03:56:03.620Z,96613.89
2018-01-18T03:58:31.969Z,96607.57
2018-01-18T04:01:00.294Z,96600.85
2018-01-18T04:03:28.609Z,96595.39
2018-01-18T04:05:58.486Z,96587.78
2018-01-18T04:08:26.806Z,96579.34
2018-01-18T04:10:55.134Z,96574.72
2018-01-18T04:13:23.458Z,96578.92
2018-01-18T04:15:51.797Z,96576.41
2018-01-18T04:18:20.151Z,96555.34
2018-01-18T04:20:48.463Z,96546.06
2018-01-18T04:23:16.796Z,96540.58
2018-01-18T04:25:45.114Z,96529.19
2018-01-18T04:28:13.886Z,96508.98
2018-01-18T04:30:42.246Z,96497.60
2018-01-18T04:33:10.570Z,96483.25
2018-01-18T04:35:38.915Z,96467.23
2018-01-18T04:38:07.255Z,96447.42
2018-01-18T04:40:35.589Z,96439.00
2018-01-18T04:43:03.920Z,96432.67
2018-01-18T04:45:32.261Z,96417.52
2018-01-18T04:48:01.188Z,96394.30
2018-01-18T04:50:29.524Z,96376.17
2018-01-18T04:52:57.873Z,96365.23
2018-01-18T04:55:26.195Z,96350.48
2018-01-18T04:57:54.531Z,96328.97
2018-01-18T05:00:22.876Z,96338.26
2018-01-18T05:02:51.194Z,96322.25
2018-01-18T05:05:19.533Z,96308.78
2018-01-18T05:07:47.868Z,96298.63
2018-01-18T05:10:16.198Z,96288.08
2018-01-18T05:12:44.523Z,96270.85
2018-01-18T05:15:12.857Z,96254.41
2018-01-18T05:17:41.207Z,96240.99
2018-01-18T05:20:10.294Z,96236.36
2018-01-18T05:22:38.627Z,96230.41
2018-01-18T05:25:06.946Z,96217.79
2018-01-18T05:27:36.060Z,96204.72
2018-01-18T05:30:04.394Z,96190.91
2018-01-18T05:32:32.732Z,96190.08
2018-01-18T05:35:01.058Z,96165.64
2018-01-18T05:37:30.174Z,96170.27
2018-01-18T05:39:58.525Z,96158.87
2018-01-18T05:42:26.860Z,96155.93
2018-01-18T05:44:55.183Z,96149.99
2018-01-18T05:47:23.538Z,96142.06
2018-01-18T05:49:51.865Z,96132.00
2018-01-18T05:52:20.206Z,96116.38
2018-01-18T05:54:48.553Z,96107.16
2018-01-18T05:57:16.898Z,96100.39
2018-01-18T05:59:45.240Z,96099.94
2018-01-18T06:02:13.590Z,96090.78
2018-01-18T06:04:41.986Z,96094.52
2018-01-18T06:07:10.292Z,96081.06
2018-01-18T06:09:39.397Z,96068.45
2018-01-18T06:12:08.506Z,96060.05
2018-01-18T06:14:36.888Z,96048.24
2018-01-18T06:17:05.243Z,96033.09
2018-01-18T06:19:33.579Z,96017.13
2018-01-18T06:22:01.911Z,96017.99
2018-01-18T06:24:30.249Z,96003.75
2018-01-18T06:26:58.596Z,96004.95
2018-01-18T06:29:26.935Z,96007.46
2018-01-18T06:31:56.048Z,95986.39
2018-01-18T06:34:24.378Z,95973.75
2018-01-18T06:36:52.709Z,95963.64
2018-01-18T06:39:21.021Z,95957.34
2018-01-18T06:41:49.366Z,95951.37
2018-01-18T06:44:17.706Z,95943.81
2018-01-18T06:46:47.223Z,95942.56
2018-01-18T06:49:15.558Z,95945.95
2018-01-18T06:51:43.886Z,95931.23
2018-01-18T06:54:13.007Z,95932.05
2018-01-18T06:56:42.296Z,95916.03
2018-01-18T06:59:10.610Z,95889.53
2018-01-18T07:01:38.932Z,95872.31
2018-01-18T07:04:08.044Z,95845.66
2018-01-18T07:06:36.388Z,95835.12
2018-01-18T07:09:04.743Z,95827.59
2018-01-18T07:11:33.071Z,95837.31
2018-01-18T07:14:01.418Z,95829.25
2018-01-18T07:16:29.737Z,95822.09
2018-01-18T07:18:59.810Z,95804.40
2018-01-18T07:21:28.141Z,95814.56
2018-01-18T07:23:56.467Z,95808.23
2018-01-18T07:26:24.797Z,95804.34
2018-01-18T07:28:53.128Z,95805.28
2018-01-18T07:31:21.480Z,95797.75
2018-01-18T07:33:49.829Z,95779.16
2018-01-18T07:36:18.147Z,95760.58
2018-01-18T07:38:46.473Z,95746.31
2018-01-18T07:41:14.805Z,95726.92
2018-01-18T07:43:43.148Z,95735.25
2018-01-18T07:46:11.500Z,95725.95
2018-01-18T07:48:40.094Z,95722.93
2018-01-18T07:51:08.421Z,95709.11
2018-01-18T07:53:36.769Z,95696.75
2018-01-18T07:56:05.129Z,95680.41
2018-01-18T07:58:33.473Z,95669.88
2018-01-18T08:01:02.573Z,95653.66
2018-01-18T08:03:36.442Z,95644.47
2018-01-18T08:06:04.762Z,95641.37
2018-01-18T08:08:33.849Z,95641.98
2018-01-18T08:11:02.164Z,95648.45
2018-01-18T08:13:30.503Z,95648.88
2018-01-18T08:15:59.582Z,95646.25
2018-01-18T08:18:27.907Z,95644.98
2018-01-18T08:20:56.257Z,95609.48
2018-01-18T08:23:25.352Z,95591.61
2018-01-18T08:25:54.468Z,95604.48
2018-01-18T08:28:22.808Z,95605.14
2018-01-18T08:30:51.137Z,95602.06
2018-01-18T08:33:19.478Z,95602.70
2018-01-18T08:35:47.858Z,95591.05
2018-01-18T08:38:16.201Z,95573.04
2018-01-18T08:40:44.530Z,95585.85
2018-01-18T08:43:12.870Z,95568.34
2018-01-18T08:45:41.206Z,95567.96
2018-01-18T08:48:09.567Z,95555.08
2018-01-18T08:50:37.873Z,95577.65
2018-01-18T08:53:06.210Z,95586.55
2018-01-18T08:55:34.562Z,95568.98
2018-01-18T08:58:02.893Z,95533.59
2018-01-18T09:00:31.235Z,95563.48
2018-01-18T09:03:00.353Z,95554.06
2018-01-18T09:05:28.687Z,95556.83
2018-01-18T09:07:57.017Z,95534.91
2018-01-18T09:10:25.331Z,95536.88
2018-01-18T09:12:53.648Z,95511.80
2018-01-18T09:15:21.972Z,95509.33
2018-01-18T09:17:50.294Z,95511.61
2018-01-18T09:20:18.626Z,95504.97
2018-01-18T09:22:47.256Z,95480.26
2018-01-18T09:25:17.474Z,95478.73
2018-01-18T09:27:46.577Z,95465.99
2018-01-18T09:30:14.934Z,95464.63
2018-01-18T09:32:43.266Z,95442.64
2018-01-18T09:35:11.591Z,95444.86
2018-01-18T09:37:40.338Z,95432.06
2018-01-18T09:40:08.737Z,95426.57
2018-01-18T09:42:37.470Z,95428.26
2018-01-18T09:45:05.790Z,95442.91
2018-01-18T09:47:34.345Z,95424.58
2018-01-18T09:50:02.681Z,95434.70
2018-01-18T09:52:31.020Z,95402.22
2018-01-18T09:54:59.345Z,95409.16
2018-01-18T09:57:27.679Z,95376.70
2018-01-18T09:59:56.017Z,95371.20
2018-01-18T10:02:24.355Z,95392.56
2018-01-18T10:04:52.705Z,95383.20
2018-01-18T10:07:21.044Z,95364.75
2018-01-18T10:09:49.384Z,95366.22
2018-01-18T10:12:17.720Z,95385.51
2018-01-18T10:14:46.042Z,95384.72
2018-01-18T10:17:14.396Z,95374.25
2018-01-18T10:19:42.729Z,95365.42
2018-01-18T10:22:11.832Z,95366.66
2018-01-18T10:24:40.154Z,95366.58
2018-01-18T10:27:08.494Z,95333.55
2018-01-18T10:29:36.819Z,95370.30
2018-01-18T10:32:05.170Z,95378.77
2018-01-18T10:34:33.487Z,95368.92
2018-01-18T10:37:01.824Z,95358.10
2018-01-18T10:39:30.134Z,95378.27
2018-01-18T10:41:59.536Z,95381.45
2018-01-18T10:44:27.871Z,95425.63
2018-01-18T10:46:56.462Z,95380.22
2018-01-18T10:49:24.792Z,95398.08
2018-01-18T10:51:53.904Z,95363.18
2018-01-18T10:54:22.244Z,95390.53
2018-01-18T10:56:50.587Z,95388.75
2018-01-18T10:59:18.892Z,95392.63
2018-01-18T11:01:47.216Z,95378.91
2018-01-18T11:04:15.545Z,95402.34
2018-01-18T11:06:44.670Z,95420.89
2018-01-18T11:09:12.930Z,95411.78
2018-01-18T11:11:41.246Z,95409.31
2018-01-18T11:14:09.593Z,95404.05
2018-01-18T11:16:38.436Z,95457.07
2018-01-18T11:19:06.754Z,95446.77
2018-01-18T11:21:35.076Z,95443.84
2018-01-18T11:24:03.437Z,95474.37
2018-01-18T11:26:31.757Z,95503.59
2018-01-18T11:29:00.088Z,95470.17
2018-01-18T11:31:29.176Z,95516.50
2018-01-18T11:33:57.531Z,95563.68
2018-01-18T11:36:25.865Z,95541.97
2018-01-18T11:38:54.206Z,95552.30
2018-01-18T11:41:23.336Z,95547.42
2018-01-18T11:43:51.669Z,95554.67
2018-01-18T11:46:19.987Z,95605.44
2018-01-18T11:48:48.328Z,95576.55
2018-01-18T11:51:16.685Z,95596.50
2018-01-18T11:53:45.029Z,95606.35
2018-01-18T11:56:13.364Z,95660.72
2018-01-18T11:58:41.720Z,95638.76
2018-01-18T12:01:10.521Z,95617.95
2018-01-18T12:03:38.856Z,95651.31
2018-01-18T12:06:07.160Z,95665.23
2018-01-18T12:08:35.485Z,95701.13
2018-01-18T12:11:04.573Z,95704.25
2018-01-18T12:13:32.908Z,95719.63
2018-01-18T12:16:01.240Z,95727.31
2018-01-18T12:18:29.590Z,95732.11
2018-01-18T12:20:58.574Z,95727.91
2018-01-18T12:23:26.913Z,95747.24
2018-01-18T12:25:55.232Z,95764.95
2018-01-18T12:28:23.560Z,95762.92
2018-01-18T12:30:51.901Z,95790.39
2018-01-18T12:35:47.871Z,95769.20
2018-01-18T12:38:16.205Z,95747.16
2018-01-18T12:40:44.536Z,95819.79
2018-01-18T12:43:12.846Z,95865.62
2018-01-18T12:45:41.172Z,95865.70
2018-01-18T12:48:09.499Z,95840.17
2018-01-18T12:50:37.844Z,95825.14
2018-01-18T12:53:06.156Z,95837.41
2018-01-18T12:55:34.496Z,95828.77
2018-01-18T12:58:02.822Z,95848.94
2018-01-18T13:00:32.184Z,95902.30
2018-01-18T13:03:00.526Z,95874.76
2018-01-18T13:05:28.846Z,95915.13
2018-01-18T13:07:57.161Z,95917.63
2018-01-18T13:10:25.493Z,95882.18
2018-01-18T13:12:53.871Z,95940.68
2018-01-18T13:15:22.222Z,95936.45
2018-01-18T13:17:50.554Z,95926.91
2018-01-18T13:20:18.882Z,95955.16
2018-01-18T13:22:47.240Z,95967.27
2018-01-18T13:25:15.575Z,96005.53
2018-01-18T13:27:43.921Z,95986.16
2018-01-18T13:30:12.271Z,95994.53
2018-01-18T13:32:41.378Z,96013.94
2018-01-18T13:35:09.713Z,96023.86
2018-01-18T13:37:38.052Z,96045.70
2018-01-18T13:40:06.377Z,96029.91
2018-01-18T13:42:34.774Z,96020.33
2018-01-18T13:45:03.106Z,96018.46
2018-01-18T13:47:31.463Z,96055.58
2018-01-18T13:49:59.848Z,96032.34
2018-01-18T13:52:28.192Z,96036.16
2018-01-18T13:54:57.290Z,96094.45
2018-01-18T13:57:26.385Z,96079.38
2018-01-18T13:59:54.720Z,96073.59
2018-01-18T14:02:23.066Z,96101.91
2018-01-18T14:04:51.387Z,96072.14
2018-01-18T14:07:19.722Z,96113.98
2018-01-18T14:09:48.124Z,96085.13
2018-01-18T14:12:16.409Z,96080.97
2018-01-18T14:14:44.736Z,96107.61
2018-01-18T14:17:13.061Z,96120.61
2018-01-18T14:19:41.374Z,96129.53
2018-01-18T14:22:09.722Z,96137.03
2018-01-18T14:24:38.068Z,96149.84
2018-01-18T14:27:07.392Z,96144.81
2018-01-18T14:29:35.764Z,96143.42
2018-01-18T14:32:04.090Z,96139.68
2018-01-18T14:34:33.196Z,96145.88
2018-01-18T14:37:01.536Z,96170.57
2018-01-18T14:39:29.886Z,96180.56
2018-01-18T14:41:58.220Z,96201.77
2018-01-18T14:44:27.318Z,96199.20
2018-01-18T14:46:55.672Z,96206.00
2018-01-18T14:49:24.018Z,96218.25
2018-01-18T14:51:52.351Z,96218.78
2018-01-18T14:54:20.706Z,96213.26
2018-01-18T14:56:49.021Z,96224.22
2018-01-18T14:59:17.365Z,96233.30
2018-01-18T15:01:45.723Z,96245.30
2018-01-18T15:04:14.072Z,96258.41
2018-01-18T15:06:43.480Z,96259.16
2018-01-18T15:09:13.429Z,96267.27
2018-01-18T15:11:42.177Z,96283.02
2018-01-18T15:14:10.560Z,96277.72
2018-01-18T15:16:38.896Z,96289.36
2018-01-18T15:19:09.104Z,96288.89
2018-01-18T15:21:37.470Z,96296.60
2018-01-18T15:24:05.783Z,96294.82
2018-01-18T15:26:34.387Z,96312.87
2018-01-18T15:29:03.794Z,96327.14
2018-01-18T15:31:32.136Z,96321.59
2018-01-18T15:34:00.461Z,96327.13
2018-01-18T15:36:28.782Z,96328.36
2018-01-18T15:38:57.131Z,96326.61
2018-01-18T15:41:25.482Z,96336.94
2018-01-18T15:43:53.819Z,96340.69
2018-01-18T15:46:22.903Z,96336.96
2018-01-18T15:48:52.225Z,96347.89
2018-01-18T15:51:20.561Z,96352.34
2018-01-18T15:53:48.920Z,96362.61
2018-01-18T15:56:17.243Z,96359.27
2018-01-18T15:58:45.643Z,96355.84
2018-01-18T16:01:14.715Z,96367.27
2018-01-18T16:03:43.802Z,96368.03
2018-01-18T16:06:12.135Z,96371.42
2018-01-18T16:08:40.466Z,96374.44
2018-01-18T16:11:08.817Z,96391.02
2018-01-18T16:13:37.160Z,96388.53
2018-01-18T16:16:05.491Z,96383.39
2018-01-18T16:18:35.460Z,96386.30
2018-01-18T16:21:03.784Z,96394.30
2018-01-18T16:23:32.113Z,96393.04
2018-01-18T16:26:00.434Z,96391.78
2018-01-18T16:28:28.834Z,96390.20
2018-01-18T16:30:57.176Z,96394.94
2018-01-18T16:33:25.534Z,96407.30
2018-01-18T16:35:53.890Z,96411.48
2018-01-18T16:38:22.236Z,96414.41
2018-01-18T16:40:50.618Z,96424.55
2018-01-18T16:43:18.977Z,96429.20
2018-01-18T16:45:47.393Z,96431.29
2018-01-18T16:48:15.794Z,96392.16
2018-01-18T16:50:44.257Z,96435.95
2018-01-18T16:53:12.685Z,96430.06
2018-01-18T16:55:41.142Z,96433.34
2018-01-18T16:58:09.525Z,96432.08
2018-01-18T17:00:37.859Z,96436.28
2018-01-18T17:03:06.954Z,96454.03
2018-01-18T17:05:36.346Z,96443.45
2018-01-18T17:08:05.601Z,96443.41
2018-01-18T17:10:34.148Z,96443.39
2018-01-18T17:13:02.819Z,96454.00
2018-01-18T17:15:31.270Z,96452.77
2018-01-18T17:18:00.536Z,96448.97
2018-01-18T17:20:29.394Z,96448.55
2018-01-18T17:22:58.426Z,96445.98
2018-01-18T17:25:28.133Z,96470.48
2018-01-18T17:27:56.991Z,96455.66
2018-01-18T17:30:27.500Z,96443.42
2018-01-18T17:32:57.320Z,96463.29
2018-01-18T17:35:27.128Z,96460.33
2018-01-18T17:37:56.958Z,96456.94
2018-01-18T17:40:27.407Z,96470.04
2018-01-18T17:42:57.275Z,96449.84
2018-01-18T17:45:27.094Z,96454.39
2018-01-18T17:47:56.806Z,96472.60
2018-01-18T17:50:27.079Z,96456.08
2018-01-18T17:52:56.854Z,96466.27
2018-01-18T17:55:26.672Z,96458.21
2018-01-18T17:57:57.083Z,96464.17
2018-01-18T18:00:27.036Z,96467.08
2018-01-18T18:02:56.772Z,96466.69
2018-01-18T18:05:26.609Z,96459.07
2018-01-18T18:07:56.444Z,96470.89
2018-01-18T18:10:26.183Z,96472.55
2018-01-18T18:12:55.903Z,96487.35
2018-01-18T18:15:25.675Z,96474.30
2018-01-18T18:17:55.435Z,96490.30
2018-01-18T18:20:25.296Z,96477.60
2018-01-18T18:22:55.121Z,96484.81
2018-01-18T18:25:25.789Z,96483.98
2018-01-18T18:27:55.783Z,96493.69
2018-01-18T18:30:25.675Z,96487.72
2018-01-18T18:32:56.320Z,96494.08
2018-01-18T18:35:26.453Z,96483.53
2018-01-18T18:37:56.412Z,96492.43
2018-01-18T18:40:26.283Z,96497.08
2018-01-18T18:42:56.261Z,96488.98
2018-01-18T18:45:26.189Z,96488.59
2018-01-18T18:47:56.099Z,96500.01
2018-01-18T18:50:27.039Z,96511.41
2018-01-18T18:52:56.926Z,96511.41
2018-01-18T18:55:26.830Z,96513.53
2018-01-18T18:57:56.714Z,96526.61
2018-01-18T19:00:26.605Z,96522.84
2018-01-18T19:02:57.373Z,96528.70
2018-01-18T19:05:27.306Z,96532.95
2018-01-18T19:07:57.192Z,96533.81
2018-01-18T19:10:27.079Z,96529.59
2018-01-18T19:12:57.168Z,96528.34
2018-01-18T19:15:27.168Z,96533.37
2018-01-18T19:17:57.051Z,96542.61
2018-01-18T19:20:27.088Z,96545.63
2018-01-18T19:22:57.489Z,96560.41
2018-01-18T19:25:27.344Z,96548.99
2018-01-18T19:27:57.203Z,96543.94
2018-01-18T19:30:27.962Z,96552.38
2018-01-18T19:32:57.951Z,96553.64
2018-01-18T19:35:28.632Z,96562.06
2018-01-18T19:37:58.710Z,96563.75
2018-01-18T19:40:28.568Z,96569.66
2018-01-18T19:42:58.726Z,96568.78
2018-01-18T19:45:28.596Z,96571.70
2018-01-18T19:47:58.602Z,96579.77
2018-01-18T19:50:28.458Z,96567.53
2018-01-18T19:52:59.437Z,96565.36
2018-01-18T19:55:29.497Z,96570.86
2018-01-18T19:57:59.424Z,96570.91
2018-01-18T20:00:29.518Z,96587.80
2018-01-18T20:03:00.391Z,96583.13
2018-01-18T20:05:31.397Z,96590.74
2018-01-18T20:08:03.193Z,96580.56
2018-01-18T20:10:33.129Z,96581.04
2018-01-18T20:13:03.095Z,96589.41
2018-01-18T20:15:35.005Z,96593.23
2018-01-18T20:18:05.000Z,96589.36
2018-01-18T20:20:34.856Z,96591.45
2018-01-18T20:23:04.851Z,96597.85
2018-01-18T20:25:34.837Z,96599.08
2018-01-18T20:28:04.762Z,96597.81
2018-01-18T20:30:36.392Z,96602.05
2018-01-18T20:33:07.116Z,96598.26
2018-01-18T20:35:37.851Z,96595.75
2018-01-18T20:38:07.814Z,96595.38
2018-01-18T20:40:38.529Z,96606.34
2018-01-18T20:43:09.356Z,96611.84
2018-01-18T20:45:39.314Z,96614.76
2018-01-18T20:48:09.244Z,96605.48
2018-01-18T20:50:39.201Z,96612.25
2018-01-18T20:53:11.047Z,96603.84
2018-01-18T20:55:41.331Z,96603.81
2018-01-18T20:58:11.613Z,96599.17
2018-01-18T21:00:41.578Z,96604.24
2018-01-18T21:03:11.973Z,96604.25
2018-01-18T21:05:41.861Z,96595.38
2018-01-18T21:08:11.778Z,96595.77
2018-01-18T21:10:41.666Z,96594.52
2018-01-18T21:13:14.383Z,96597.05
2018-01-18T21:15:46.074Z,96593.71
2018-01-18T21:18:16.083Z,96591.16
2018-01-18T21:20:45.997Z,96585.25
2018-01-18T21:23:15.928Z,96583.98
2018-01-18T21:25:45.902Z,96587.30
2018-01-18T21:28:17.123Z,96586.03
2018-01-18T21:30:47.063Z,96576.73
2018-01-18T21:33:17.769Z,96587.68
2018-01-18T21:35:48.025Z,96589.41
2018-01-18T21:38:18.509Z,96601.67
2018-01-18T21:40:49.422Z,96605.09
2018-01-18T21:43:20.151Z,96618.63
2018-01-18T21:45:50.140Z,96611.85
2018-01-18T21:48:20.820Z,96623.69
2018-01-18T21:50:50.702Z,96625.37
2018-01-18T21:53:20.623Z,96641.41
2018-01-18T21:55:50.684Z,96647.30
2018-01-18T21:58:20.732Z,96648.98
2018-01-18T22:00:50.588Z,96644.79
2018-01-18T22:03:20.441Z,96644.77
2018-01-18T22:05:51.007Z,96643.47
2018-01-18T22:08:21.047Z,96654.83
2018-01-18T22:10:50.873Z,96661.89
2018-01-18T22:13:20.759Z,96666.50
2018-01-18T22:15:50.584Z,96662.80
2018-01-18T22:18:20.420Z,96661.94
2018-01-18T22:20:50.276Z,96655.93
2018-01-18T22:23:20.108Z,96656.02
2018-01-18T22:25:50.757Z,96655.60
2018-01-18T22:28:20.492Z,96656.06
2018-01-18T22:30:50.916Z,96656.96
2018-01-18T22:33:20.557Z,96659.53
2018-01-18T22:35:50.211Z,96648.53
2018-01-18T22:38:18.952Z,96646.87
2018-01-18T22:40:47.637Z,96641.41
2018-01-18T22:43:16.057Z,96633.81
2018-01-18T22:45:44.486Z,96629.16
2018-01-18T22:48:13.582Z,96629.17
2018-01-18T22:50:41.936Z,96623.67
2018-01-18T22:53:11.458Z,96616.09
2018-01-18T22:55:39.780Z,96616.48
2018-01-18T22:58:08.129Z,96613.88
2018-01-18T23:00:36.467Z,96603.83
2018-01-18T23:03:04.815Z,96602.17
2018-01-18T23:05:33.157Z,96595.41
2018-01-18T23:08:01.489Z,96595.84
2018-01-18T23:10:29.831Z,96598.38
2018-01-18T23:12:58.179Z,96602.16
2018-01-18T23:15:26.505Z,96613.55
2018-01-18T23:17:54.852Z,96610.59
2018-01-18T23:20:23.938Z,96609.75
2018-01-18T23:22:53.040Z,96588.66
2018-01-18T23:25:21.362Z,96617.78
2018-01-18T23:27:49.821Z,96614.34
2018-01-18T23:30:18.189Z,96617.72
2018-01-18T23:32:46.506Z,96623.17
2018-01-18T23:35:14.856Z,96627.76
2018-01-18T23:37:43.182Z,96642.70
2018-01-18T23:40:11.502Z,96638.05
2018-01-18T23:42:39.817Z,96639.79
2018-01-18T23:45:08.108Z,96637.75
2018-01-18T23:47:37.175Z,96638.20
2018-01-18T23:50:05.512Z,96641.16
2018-01-18T23:52:33.846Z,96647.77
2018-01-18T23:55:02.193Z,96652.82
2018-01-18T23:57:30.547Z,96653.34
2018-01-18T23:59:58.892Z,96654.19
